createdAt,value
2023-01-20T00:01:16.500Z,0.70
2023-01-20T00:03:44.442Z,0.70
2023-01-20T00:06:11.144Z,0.70
2023-01-20T00:08:37.714Z,0.80
2023-01-20T00:11:04.332Z,0.90
2023-01-20T00:13:30.913Z,0.90
2023-01-20T00:15:57.573Z,0.90
2023-01-20T00:18:24.206Z,1.00
2023-01-20T00:20:50.818Z,0.90
2023-01-20T00:23:17.387Z,0.90
2023-01-20T00:25:44.198Z,0.80
2023-01-20T00:28:10.777Z,0.80
2023-01-20T00:30:37.468Z,0.80
2023-01-20T00:33:04.101Z,0.80
2023-01-20T00:35:30.709Z,0.70
2023-01-20T00:37:57.274Z,0.60
2023-01-20T00:40:23.887Z,0.60
2023-01-20T00:42:50.480Z,0.60
2023-01-20T00:45:17.240Z,0.60
2023-01-20T00:47:43.860Z,0.60
2023-01-20T00:50:10.518Z,0.60
2023-01-20T00:52:37.172Z,0.50
2023-01-20T00:55:03.873Z,0.50
2023-01-20T00:57:30.445Z,0.50
2023-01-20T00:59:57.067Z,0.50
2023-01-20T01:02:23.728Z,0.50
2023-01-20T01:04:51.111Z,0.50
2023-01-20T01:07:17.741Z,0.50
2023-01-20T01:09:44.443Z,0.50
2023-01-20T01:12:11.088Z,0.40
2023-01-20T01:14:37.720Z,0.50
2023-01-20T01:17:04.354Z,0.50
2023-01-20T01:19:30.976Z,0.50
2023-01-20T01:21:57.554Z,0.50
2023-01-20T01:24:24.221Z,0.50
2023-01-20T01:26:51.158Z,0.60
2023-01-20T01:29:17.778Z,0.60
2023-01-20T01:31:44.455Z,0.60
2023-01-20T01:34:11.156Z,0.50
2023-01-20T01:36:37.785Z,0.60
2023-01-20T01:39:04.368Z,0.70
2023-01-20T01:41:30.976Z,0.80
2023-01-20T01:43:57.609Z,0.90
2023-01-20T01:46:24.255Z,1.00
2023-01-20T01:48:51.292Z,1.10
2023-01-20T01:51:17.899Z,1.20
2023-01-20T01:53:44.550Z,1.20
2023-01-20T01:56:11.140Z,1.20
2023-01-20T01:58:37.753Z,1.30
2023-01-20T02:01:04.573Z,1.30
2023-01-20T02:03:31.310Z,1.30
2023-01-20T02:05:57.918Z,1.40
2023-01-20T02:08:24.515Z,1.40
2023-01-20T02:10:51.188Z,1.40
2023-01-20T02:13:17.807Z,1.30
2023-01-20T02:15:44.372Z,1.40
2023-01-20T02:18:10.972Z,1.30
2023-01-20T02:20:37.532Z,1.30
2023-01-20T02:23:04.151Z,1.20
2023-01-20T02:25:30.727Z,1.20
2023-01-20T02:27:57.359Z,1.10
2023-01-20T02:30:23.986Z,1.00
2023-01-20T02:32:50.608Z,0.90
2023-01-20T02:35:17.310Z,0.90
2023-01-20T02:37:43.937Z,0.80
2023-01-20T02:40:10.564Z,0.80
2023-01-20T02:42:38.065Z,0.70
2023-01-20T02:45:04.637Z,0.70
2023-01-20T02:47:31.275Z,0.60
2023-01-20T02:49:59.258Z,0.60
2023-01-20T02:52:25.978Z,0.50
2023-01-20T02:54:52.566Z,0.50
2023-01-20T02:57:19.151Z,0.50
2023-01-20T02:59:45.735Z,0.50
2023-01-20T03:02:12.406Z,0.50
2023-01-20T03:04:39.000Z,0.50
2023-01-20T03:07:05.588Z,0.40
2023-01-20T03:09:32.162Z,0.40
2023-01-20T03:11:58.827Z,0.40
2023-01-20T03:14:25.548Z,0.40
2023-01-20T03:16:52.358Z,0.40
2023-01-20T03:19:20.525Z,0.30
2023-01-20T03:21:47.318Z,0.40
2023-01-20T03:24:13.936Z,0.40
2023-01-20T03:26:40.551Z,0.50
2023-01-20T03:29:07.189Z,0.50
2023-01-20T03:31:33.823Z,0.50
2023-01-20T03:34:00.447Z,0.50
2023-01-20T03:36:27.032Z,0.60
2023-01-20T03:38:53.746Z,0.60
2023-01-20T03:41:20.387Z,0.60
2023-01-20T03:43:46.948Z,0.60
2023-01-20T03:46:13.761Z,0.60
2023-01-20T03:48:40.409Z,0.60
2023-01-20T03:51:07.078Z,0.70
2023-01-20T03:53:33.692Z,0.60
2023-01-20T03:56:00.270Z,0.70
2023-01-20T03:58:26.840Z,0.60
2023-01-20T04:00:54.940Z,0.60
2023-01-20T04:03:21.831Z,0.60
2023-01-20T04:05:48.468Z,0.60
2023-01-20T04:08:15.078Z,0.60
2023-01-20T04:10:41.723Z,0.60
2023-01-20T04:13:08.303Z,0.50
2023-01-20T04:15:35.040Z,0.60
2023-01-20T04:18:01.632Z,0.60
2023-01-20T04:20:28.251Z,0.60
2023-01-20T04:22:55.041Z,0.70
2023-01-20T04:25:21.691Z,0.70
2023-01-20T04:27:48.264Z,0.60
2023-01-20T04:30:14.879Z,0.60
2023-01-20T04:32:41.472Z,0.60
2023-01-20T04:35:08.111Z,0.50
2023-01-20T04:37:34.749Z,0.40
2023-01-20T04:40:01.442Z,0.40
2023-01-20T04:42:28.031Z,0.40
2023-01-20T04:44:54.615Z,0.40
2023-01-20T04:47:21.245Z,0.50
2023-01-20T04:49:47.905Z,0.50
2023-01-20T04:52:14.482Z,0.40
2023-01-20T04:54:41.080Z,0.40
2023-01-20T04:57:07.756Z,0.30
2023-01-20T04:59:34.342Z,0.40
2023-01-20T05:02:01.062Z,0.30
2023-01-20T05:04:27.785Z,0.20
2023-01-20T05:06:54.404Z,0.30
2023-01-20T05:09:21.132Z,0.30
2023-01-20T05:11:47.730Z,0.30
2023-01-20T05:14:14.298Z,0.30
2023-01-20T05:16:40.960Z,0.20
2023-01-20T05:19:07.569Z,0.10
2023-01-20T05:21:34.153Z,0.10
2023-01-20T05:24:00.795Z,0.30
2023-01-20T05:26:27.486Z,0.30
2023-01-20T05:28:54.067Z,0.20
2023-01-20T05:31:20.769Z,0.20
2023-01-20T05:33:47.446Z,0.20
2023-01-20T05:36:14.063Z,0.10
2023-01-20T05:38:40.713Z,0.10
2023-01-20T05:41:07.372Z,0.20
2023-01-20T05:43:33.979Z,0.20
2023-01-20T05:46:00.616Z,0.30
2023-01-20T05:48:27.212Z,0.20
2023-01-20T05:50:53.835Z,0.20
2023-01-20T05:53:20.444Z,0.20
2023-01-20T05:55:47.121Z,0.20
2023-01-20T05:58:13.745Z,0.30
2023-01-20T06:00:40.346Z,0.30
2023-01-20T06:03:07.026Z,0.30
2023-01-20T06:05:33.677Z,0.20
2023-01-20T06:08:00.525Z,0.20
2023-01-20T06:10:30.303Z,0.20
2023-01-20T06:12:57.082Z,0.20
2023-01-20T06:15:23.858Z,0.20
2023-01-20T06:17:50.515Z,0.20
2023-01-20T06:20:17.100Z,0.20
2023-01-20T06:22:43.686Z,0.00
2023-01-20T06:25:10.315Z,0.00
2023-01-20T06:27:37.380Z,0.10
2023-01-20T06:30:03.932Z,0.10
2023-01-20T06:32:30.544Z,0.10
2023-01-20T06:34:57.138Z,0.00
2023-01-20T06:37:23.736Z,0.10
2023-01-20T06:39:50.315Z,0.10
2023-01-20T06:42:17.078Z,0.10
2023-01-20T06:44:43.658Z,0.10
2023-01-20T06:47:10.295Z,0.00
2023-01-20T06:49:36.869Z,0.00
2023-01-20T06:52:03.491Z,0.00
2023-01-20T06:54:30.090Z,0.00
2023-01-20T06:56:56.684Z,0.10
2023-01-20T06:59:23.243Z,0.10
2023-01-20T07:01:50.100Z,0.10
2023-01-20T07:04:16.767Z,0.00
2023-01-20T07:06:43.406Z,0.00
2023-01-20T07:09:10.060Z,0.10
2023-01-20T07:11:37.154Z,0.10
2023-01-20T07:14:03.841Z,0.10
2023-01-20T07:16:30.577Z,0.00
2023-01-20T07:18:57.169Z,0.00
2023-01-20T07:21:26.261Z,0.00
2023-01-20T07:23:53.128Z,-0.10
2023-01-20T07:26:19.801Z,-0.10
2023-01-20T07:28:46.431Z,-0.10
2023-01-20T07:31:13.044Z,0.00
2023-01-20T07:33:39.714Z,0.00
2023-01-20T07:36:06.926Z,0.00
2023-01-20T07:38:33.579Z,0.00
2023-01-20T07:41:00.189Z,-0.10
2023-01-20T07:43:26.908Z,0.00
2023-01-20T07:45:53.591Z,0.00
2023-01-20T07:48:20.202Z,0.00
2023-01-20T07:50:46.835Z,0.00
2023-01-20T07:53:13.476Z,-0.10
2023-01-20T07:55:40.120Z,-0.10
2023-01-20T07:58:06.694Z,-0.10
2023-01-20T08:00:33.315Z,0.00
2023-01-20T08:02:59.993Z,0.00
2023-01-20T08:05:26.655Z,0.00
2023-01-20T08:07:53.308Z,0.00
2023-01-20T08:10:19.940Z,0.00
2023-01-20T08:12:46.805Z,0.10
2023-01-20T08:15:13.630Z,0.10
2023-01-20T08:17:40.379Z,0.10
2023-01-20T08:20:07.077Z,0.10
2023-01-20T08:22:33.842Z,0.10
2023-01-20T08:25:00.454Z,0.30
2023-01-20T08:27:27.007Z,0.30
2023-01-20T08:29:53.736Z,0.30
2023-01-20T08:32:20.392Z,0.30
2023-01-20T08:34:46.972Z,0.30
2023-01-20T08:37:13.585Z,0.30
2023-01-20T08:39:40.184Z,0.20
2023-01-20T08:42:06.781Z,0.20
2023-01-20T08:44:33.695Z,0.20
2023-01-20T08:47:00.397Z,0.30
2023-01-20T08:49:27.135Z,0.30
2023-01-20T08:51:53.924Z,0.50
2023-01-20T08:54:22.456Z,0.50
2023-01-20T08:56:49.045Z,0.60
2023-01-20T08:59:15.669Z,0.80
2023-01-20T09:01:43.666Z,0.80
2023-01-20T09:04:11.579Z,0.90
2023-01-20T09:06:38.211Z,1.00
2023-01-20T09:09:04.876Z,1.10
2023-01-20T09:11:31.497Z,1.10
2023-01-20T09:13:58.293Z,1.20
2023-01-20T09:16:24.925Z,1.20
2023-01-20T09:18:51.486Z,1.30
2023-01-20T09:21:18.093Z,1.40
2023-01-20T09:24:04.694Z,1.50
2023-01-20T09:26:38.355Z,1.50
2023-01-20T09:29:09.531Z,1.60
2023-01-20T09:31:36.734Z,1.70
2023-01-20T09:34:04.694Z,1.80
2023-01-20T09:36:31.351Z,1.80
2023-01-20T09:39:16.726Z,1.90
2023-01-20T09:42:01.999Z,2.00
2023-01-20T09:44:28.884Z,2.00
2023-01-20T09:47:14.398Z,2.10
2023-01-20T09:49:59.692Z,2.10
2023-01-20T09:52:46.178Z,2.10
2023-01-20T09:55:12.886Z,2.30
2023-01-20T09:57:39.453Z,2.40
2023-01-20T10:00:06.626Z,2.50
2023-01-20T10:02:33.295Z,2.60
2023-01-20T10:04:59.984Z,2.80
2023-01-20T10:07:26.583Z,3.00
2023-01-20T10:09:53.186Z,3.20
2023-01-20T10:12:19.820Z,3.40
2023-01-20T10:14:46.421Z,3.60
2023-01-20T10:17:13.410Z,3.70
2023-01-20T10:19:42.311Z,3.80
2023-01-20T10:22:08.950Z,3.90
2023-01-20T10:24:35.842Z,4.00
2023-01-20T10:27:02.517Z,4.30
2023-01-20T10:29:29.231Z,4.40
2023-01-20T10:31:56.114Z,4.50
2023-01-20T10:34:23.817Z,4.60
2023-01-20T10:36:50.540Z,4.70
2023-01-20T10:39:17.123Z,4.80
2023-01-20T10:41:43.717Z,4.90
2023-01-20T10:44:11.501Z,5.10
2023-01-20T10:46:38.291Z,5.20
2023-01-20T10:49:04.989Z,5.40
2023-01-20T10:51:31.609Z,5.50
2023-01-20T10:53:58.267Z,5.70
2023-01-20T10:56:25.008Z,5.80
2023-01-20T10:58:51.680Z,6.00
2023-01-20T11:01:19.050Z,6.10
2023-01-20T11:03:46.920Z,6.20
2023-01-20T11:06:13.570Z,6.50
2023-01-20T11:08:40.262Z,6.40
2023-01-20T11:11:06.860Z,6.30
2023-01-20T11:13:33.788Z,6.40
2023-01-20T11:16:00.436Z,6.60
2023-01-20T11:18:27.824Z,6.90
2023-01-20T11:20:54.466Z,7.00
2023-01-20T11:23:21.351Z,7.20
2023-01-20T11:25:47.935Z,7.30
2023-01-20T11:28:14.553Z,7.30
2023-01-20T11:30:41.257Z,7.40
2023-01-20T11:33:08.125Z,7.60
2023-01-20T11:35:34.799Z,7.80
2023-01-20T11:38:01.433Z,8.00
2023-01-20T11:40:28.080Z,8.20
2023-01-20T11:42:54.827Z,8.30
2023-01-20T11:45:22.002Z,8.00
2023-01-20T11:47:48.656Z,8.10
2023-01-20T11:50:15.462Z,8.20
2023-01-20T11:52:48.873Z,7.90
2023-01-20T11:55:15.649Z,7.20
2023-01-20T11:57:42.240Z,6.60
2023-01-20T12:00:08.873Z,6.30
2023-01-20T12:02:41.710Z,5.90
2023-01-20T12:05:08.293Z,5.60
2023-01-20T12:07:34.908Z,5.50
2023-01-20T12:10:03.959Z,5.50
2023-01-20T12:12:32.307Z,5.40
2023-01-20T12:15:00.376Z,5.40
2023-01-20T12:17:26.937Z,5.40
2023-01-20T12:19:53.735Z,5.40
2023-01-20T12:22:20.623Z,5.40
2023-01-20T12:25:13.324Z,5.40
2023-01-20T12:27:39.989Z,5.60
2023-01-20T12:30:06.565Z,5.80
2023-01-20T12:32:33.544Z,6.00
2023-01-20T12:35:00.139Z,6.00
2023-01-20T12:37:26.731Z,6.00
2023-01-20T12:39:53.308Z,6.00
2023-01-20T12:42:19.907Z,5.90
2023-01-20T12:44:46.770Z,6.00
2023-01-20T12:47:14.217Z,5.80
2023-01-20T12:49:40.880Z,5.70
2023-01-20T12:52:07.488Z,5.50
2023-01-20T12:54:47.343Z,5.50
2023-01-20T12:57:14.787Z,5.50
2023-01-20T12:59:41.443Z,5.40
2023-01-20T13:02:08.000Z,5.40
2023-01-20T13:04:35.692Z,5.40
2023-01-20T13:07:04.182Z,5.40
2023-01-20T13:09:30.830Z,5.50
2023-01-20T13:11:57.436Z,5.50
2023-01-20T13:14:24.392Z,5.50
2023-01-20T13:16:51.073Z,5.50
2023-01-20T13:19:17.688Z,5.40
2023-01-20T13:21:44.376Z,5.40
2023-01-20T13:24:15.921Z,5.50
2023-01-20T13:26:42.509Z,5.60
2023-01-20T13:29:09.096Z,5.70
2023-01-20T13:31:35.704Z,5.80
2023-01-20T13:34:02.440Z,5.90
2023-01-20T13:36:29.000Z,6.10
2023-01-20T13:38:55.559Z,6.20
2023-01-20T13:41:22.172Z,6.10
2023-01-20T13:43:52.281Z,6.10
2023-01-20T13:46:18.949Z,6.20
2023-01-20T13:48:45.563Z,6.30
2023-01-20T13:51:12.248Z,6.40
2023-01-20T13:53:38.978Z,6.50
2023-01-20T13:56:08.436Z,6.60
2023-01-20T13:58:35.797Z,6.70
2023-01-20T14:01:02.550Z,6.70
2023-01-20T14:03:29.546Z,6.70
2023-01-20T14:05:56.273Z,6.70
2023-01-20T14:08:22.984Z,6.60
2023-01-20T14:10:49.653Z,6.50
2023-01-20T14:13:16.556Z,6.40
2023-01-20T14:15:43.444Z,6.20
2023-01-20T14:18:10.136Z,6.30
2023-01-20T14:20:37.462Z,6.50
2023-01-20T14:23:04.334Z,6.70
2023-01-20T14:25:30.984Z,6.80
2023-01-20T14:27:57.547Z,6.90
2023-01-20T14:30:26.851Z,6.80
2023-01-20T14:32:54.641Z,6.60
2023-01-20T14:35:21.270Z,6.60
2023-01-20T14:37:47.978Z,6.50
2023-01-20T14:40:15.027Z,6.60
2023-01-20T14:42:42.004Z,6.60
2023-01-20T14:45:09.516Z,6.70
2023-01-20T14:47:37.243Z,6.60
2023-01-20T14:50:03.911Z,6.50
2023-01-20T14:52:30.948Z,6.50
2023-01-20T14:54:57.553Z,6.40
2023-01-20T14:57:25.125Z,6.40
2023-01-20T14:59:51.760Z,6.40
2023-01-20T15:02:18.338Z,6.30
2023-01-20T15:04:45.000Z,6.30
2023-01-20T15:07:11.596Z,6.30
2023-01-20T15:09:38.194Z,6.20
2023-01-20T15:12:04.789Z,6.30
2023-01-20T15:14:34.218Z,6.20
2023-01-20T15:17:00.882Z,6.10
2023-01-20T15:19:27.486Z,6.10
2023-01-20T15:21:54.122Z,6.10
2023-01-20T15:24:22.085Z,6.10
2023-01-20T15:26:48.834Z,6.10
2023-01-20T15:29:15.436Z,6.10
2023-01-20T15:31:42.086Z,6.10
2023-01-20T15:34:08.773Z,6.00
2023-01-20T15:36:37.065Z,6.00
2023-01-20T15:39:03.744Z,6.00
2023-01-20T15:41:30.536Z,6.00
2023-01-20T15:43:58.304Z,6.00
2023-01-20T15:46:24.975Z,6.00
2023-01-20T15:48:51.624Z,6.00
2023-01-20T15:51:18.486Z,6.00
2023-01-20T15:53:45.380Z,6.00
2023-01-20T15:56:11.977Z,6.00
2023-01-20T15:58:38.688Z,5.90
2023-01-20T16:01:05.255Z,5.90
2023-01-20T16:03:35.402Z,5.90
2023-01-20T16:06:02.094Z,5.90
2023-01-20T16:08:28.823Z,5.90
2023-01-20T16:10:55.420Z,5.90
2023-01-20T16:13:22.263Z,5.90
2023-01-20T16:15:53.155Z,5.90
2023-01-20T16:18:22.429Z,5.90
2023-01-20T16:20:49.806Z,5.90
2023-01-20T16:23:16.735Z,5.80
2023-01-20T16:25:43.313Z,5.80
2023-01-20T16:28:09.917Z,5.80
2023-01-20T16:30:36.519Z,5.80
2023-01-20T16:33:04.427Z,5.70
2023-01-20T16:35:31.058Z,5.60
2023-01-20T16:37:57.831Z,5.60
2023-01-20T16:40:24.660Z,5.50
2023-01-20T16:42:53.626Z,5.50
2023-01-20T16:45:20.221Z,5.40
2023-01-20T16:47:46.894Z,5.30
2023-01-20T16:50:13.723Z,5.20
2023-01-20T16:52:41.564Z,5.20
2023-01-20T16:55:10.580Z,5.10
2023-01-20T16:57:39.038Z,5.00
2023-01-20T17:00:05.642Z,4.90
2023-01-20T17:02:34.075Z,4.80
2023-01-20T17:05:00.798Z,4.80
2023-01-20T17:07:27.770Z,4.70
2023-01-20T17:09:54.386Z,4.60
2023-01-20T17:12:21.048Z,4.60
2023-01-20T17:14:47.805Z,4.50
2023-01-20T17:17:14.436Z,4.50
2023-01-20T17:19:41.045Z,4.30
2023-01-20T17:22:07.696Z,4.40
2023-01-20T17:24:34.605Z,4.40
2023-01-20T17:27:01.227Z,4.50
2023-01-20T17:29:27.828Z,4.60
2023-01-20T17:31:54.428Z,4.70
2023-01-20T17:34:22.586Z,4.80
2023-01-20T17:36:49.231Z,4.80
2023-01-20T17:39:15.833Z,4.90
2023-01-20T17:41:42.444Z,4.90
2023-01-20T17:44:10.352Z,5.00
2023-01-20T17:46:36.979Z,5.00
2023-01-20T17:49:07.719Z,5.10
2023-01-20T17:51:34.364Z,5.10
2023-01-20T17:54:03.606Z,5.10
2023-01-20T17:56:30.531Z,5.10
2023-01-20T17:58:57.118Z,5.00
2023-01-20T18:01:24.109Z,4.90
2023-01-20T18:03:51.079Z,4.90
2023-01-20T18:06:17.670Z,4.80
2023-01-20T18:08:44.237Z,4.80
2023-01-20T18:11:10.883Z,4.90
2023-01-20T18:13:37.801Z,4.90
2023-01-20T18:16:05.151Z,5.00
2023-01-20T18:18:32.033Z,5.00
2023-01-20T18:20:59.043Z,5.10
2023-01-20T18:23:27.822Z,5.10
2023-01-20T18:25:56.244Z,5.10
2023-01-20T18:28:22.859Z,5.10
2023-01-20T18:30:49.573Z,5.20
2023-01-20T18:33:16.413Z,5.10
2023-01-20T18:35:43.026Z,5.10
2023-01-20T18:38:09.592Z,5.10
2023-01-20T18:40:36.248Z,5.10
2023-01-20T18:43:03.097Z,5.20
2023-01-20T18:45:29.927Z,5.20
2023-01-20T18:47:56.499Z,5.10
2023-01-20T18:50:23.178Z,5.10
2023-01-20T18:52:51.098Z,5.10
2023-01-20T18:55:17.722Z,5.10
2023-01-20T18:57:44.419Z,5.10
2023-01-20T19:00:11.160Z,5.00
2023-01-20T19:02:37.933Z,5.00
2023-01-20T19:05:04.619Z,4.90
2023-01-20T19:07:31.263Z,4.80
2023-01-20T19:09:58.221Z,4.60
2023-01-20T19:12:24.796Z,4.50
2023-01-20T19:14:52.545Z,4.40
2023-01-20T19:17:19.145Z,4.20
2023-01-20T19:19:49.510Z,4.10
2023-01-20T19:22:16.332Z,4.10
2023-01-20T19:24:43.148Z,4.00
2023-01-20T19:27:09.877Z,4.00
2023-01-20T19:29:36.509Z,4.00
2023-01-20T19:32:03.091Z,3.90
2023-01-20T19:34:30.916Z,3.80
2023-01-20T19:36:58.735Z,3.70
2023-01-20T19:39:25.375Z,3.80
2023-01-20T19:41:52.263Z,3.80
2023-01-20T19:44:19.273Z,3.90
2023-01-20T19:46:46.127Z,4.00
2023-01-20T19:49:12.796Z,4.10
2023-01-20T19:51:39.439Z,4.10
2023-01-20T19:54:06.697Z,4.20
2023-01-20T19:56:33.318Z,4.20
2023-01-20T19:59:02.996Z,4.20
2023-01-20T20:01:31.557Z,4.30
2023-01-20T20:03:58.591Z,4.30
2023-01-20T20:06:25.201Z,4.30
2023-01-20T20:08:51.805Z,4.40
2023-01-20T20:11:18.459Z,4.40
2023-01-20T20:13:46.279Z,4.40
2023-01-20T20:16:12.983Z,4.40
2023-01-20T20:18:39.622Z,4.40
2023-01-20T20:21:08.274Z,4.50
2023-01-20T20:23:36.087Z,4.50
2023-01-20T20:26:02.712Z,4.30
2023-01-20T20:28:29.499Z,4.20
2023-01-20T20:30:56.210Z,4.00
2023-01-20T20:33:24.242Z,3.80
2023-01-20T20:35:50.871Z,3.70
2023-01-20T20:38:17.507Z,3.60
2023-01-20T20:40:44.210Z,3.50
2023-01-20T20:43:11.141Z,3.60
2023-01-20T20:45:37.813Z,3.60
2023-01-20T20:48:04.752Z,3.50
2023-01-20T20:50:31.444Z,3.50
2023-01-20T20:52:58.868Z,3.40
2023-01-20T20:55:26.195Z,3.30
2023-01-20T20:57:52.902Z,3.30
2023-01-20T21:00:23.324Z,3.20
2023-01-20T21:02:50.295Z,3.20
2023-01-20T21:05:18.822Z,3.20
2023-01-20T21:07:45.461Z,3.30
2023-01-20T21:10:13.830Z,3.40
2023-01-20T21:12:40.689Z,3.40
2023-01-20T21:15:07.407Z,3.40
2023-01-20T21:17:34.048Z,3.30
2023-01-20T21:20:00.622Z,3.20
2023-01-20T21:22:27.257Z,3.10
2023-01-20T21:24:53.840Z,3.10
2023-01-20T21:27:20.509Z,2.90
2023-01-20T21:29:47.097Z,2.90
2023-01-20T21:32:13.747Z,2.80
2023-01-20T21:34:41.653Z,2.80
2023-01-20T21:37:08.511Z,2.80
2023-01-20T21:39:35.147Z,2.70
2023-01-20T21:42:01.798Z,2.70
2023-01-20T21:44:28.517Z,2.70
2023-01-20T21:46:55.302Z,2.70
2023-01-20T21:49:40.695Z,2.70
2023-01-20T21:52:25.839Z,2.70
2023-01-20T21:54:52.425Z,2.60
2023-01-20T21:57:21.047Z,2.50
2023-01-20T21:59:48.000Z,2.50
2023-01-20T22:02:14.712Z,2.50
2023-01-20T22:04:41.706Z,2.40
2023-01-20T22:07:08.372Z,2.40
2023-01-20T22:09:34.975Z,2.40
2023-01-20T22:12:01.713Z,2.40
2023-01-20T22:14:32.219Z,2.30
2023-01-20T22:16:58.904Z,2.30
2023-01-20T22:19:25.546Z,2.30
2023-01-20T22:21:52.260Z,2.30
2023-01-20T22:24:19.107Z,2.30
2023-01-20T22:26:45.730Z,2.20
2023-01-20T22:29:12.460Z,2.20
2023-01-20T22:31:39.471Z,2.20
2023-01-20T22:34:06.417Z,2.30
2023-01-20T22:36:33.128Z,2.40
2023-01-20T22:38:59.766Z,2.50
2023-01-20T22:41:26.350Z,2.60
2023-01-20T22:43:55.710Z,2.70
2023-01-20T22:46:22.321Z,2.80
2023-01-20T22:48:48.940Z,2.80
2023-01-20T22:51:15.632Z,3.00
2023-01-20T22:53:42.294Z,3.00
2023-01-20T22:56:08.861Z,3.00
2023-01-20T22:58:35.516Z,3.00
2023-01-20T23:01:02.199Z,3.00
2023-01-20T23:03:30.006Z,3.10
2023-01-20T23:05:59.630Z,3.10
2023-01-20T23:08:26.387Z,3.10
2023-01-20T23:10:53.049Z,3.10
2023-01-20T23:13:20.163Z,3.10
2023-01-20T23:15:46.792Z,3.10
2023-01-20T23:18:13.389Z,3.10
2023-01-20T23:20:40.212Z,3.10
2023-01-20T23:23:10.829Z,3.10
2023-01-20T23:25:37.540Z,3.10
2023-01-20T23:28:04.203Z,3.10
2023-01-20T23:30:30.880Z,3.10
2023-01-20T23:32:57.594Z,3.10
2023-01-20T23:35:24.267Z,3.10
2023-01-20T23:37:50.882Z,3.10
2023-01-20T23:40:18.416Z,3.10
2023-01-20T23:42:46.530Z,3.10
2023-01-20T23:45:13.129Z,3.20
2023-01-20T23:47:39.745Z,3.20
2023-01-20T23:50:06.369Z,3.20
2023-01-20T23:52:33.317Z,3.30
2023-01-20T23:55:00.687Z,3.30
2023-01-20T23:57:27.272Z,3.30
2023-01-20T23:59:53.996Z,3.30
